sensor_id;sensor_type;location;lat;lon;timestamp;temperature;humidity
73438;DHT22;66471;56.532;21.020;2023-08-21T05:53:50;19.90;99.90
73438;DHT22;66471;56.532;21.020;2023-08-21T05:56:17;19.90;99.90
73438;DHT22;66471;56.532;21.020;2023-08-21T05:58:44;19.90;99.90
73438;DHT22;66471;56.532;21.020;2023-08-21T06:01:13;19.90;99.90
73438;DHT22;66471;56.532;21.020;2023-08-21T06:03:41;19.90;99.90
73438;DHT22;66471;56.532;21.020;2023-08-21T06:06:08;20.20;99.90
73438;DHT22;66471;56.532;21.020;2023-08-21T06:08:36;20.30;99.60
73438;DHT22;66471;56.532;21.020;2023-08-21T06:11:03;20.40;99.50
73438;DHT22;66471;56.532;21.020;2023-08-21T06:13:30;20.60;99.50
73438;DHT22;66471;56.532;21.020;2023-08-21T06:15:57;20.50;98.40
73438;DHT22;66471;56.532;21.020;2023-08-21T06:18:24;20.60;97.70
73438;DHT22;66471;56.532;21.020;2023-08-21T06:20:51;20.70;97.60
73438;DHT22;66471;56.532;21.020;2023-08-21T06:23:20;20.80;98.00
73438;DHT22;66471;56.532;21.020;2023-08-21T06:25:48;20.80;97.60
73438;DHT22;66471;56.532;21.020;2023-08-21T06:28:16;20.80;97.50
73438;DHT22;66471;56.532;21.020;2023-08-21T06:30:43;20.70;97.20
73438;DHT22;66471;56.532;21.020;2023-08-21T06:33:11;20.80;97.00
73438;DHT22;66471;56.532;21.020;2023-08-21T06:35:38;20.90;96.70
73438;DHT22;66471;56.532;21.020;2023-08-21T06:38:05;20.80;96.70
73438;DHT22;66471;56.532;21.020;2023-08-21T06:40:34;20.90;97.30
73438;DHT22;66471;56.532;21.020;2023-08-21T06:43:01;20.90;95.80
73438;DHT22;66471;56.532;21.020;2023-08-21T06:45:28;20.90;96.20
73438;DHT22;66471;56.532;21.020;2023-08-21T06:47:57;20.90;95.50
73438;DHT22;66471;56.532;21.020;2023-08-21T06:50:24;20.80;96.60
73438;DHT22;66471;56.532;21.020;2023-08-21T06:52:51;20.90;95.50
73438;DHT22;66471;56.532;21.020;2023-08-21T06:55:19;20.90;96.10
73438;DHT22;66471;56.532;21.020;2023-08-21T06:57:46;21.00;94.50
73438;DHT22;66471;56.532;21.020;2023-08-21T07:00:14;21.00;94.30
73438;DHT22;66471;56.532;21.020;2023-08-21T07:02:41;21.00;93.80
73438;DHT22;66471;56.532;21.020;2023-08-21T07:05:08;21.30;93.40
73438;DHT22;66471;56.532;21.020;2023-08-21T07:07:38;21.50;92.70
73438;DHT22;66471;56.532;21.020;2023-08-21T07:10:05;21.50;92.40
73438;DHT22;66471;56.532;21.020;2023-08-21T07:12:33;21.40;92.60
73438;DHT22;66471;56.532;21.020;2023-08-21T07:15:00;21.50;92.20
73438;DHT22;66471;56.532;21.020;2023-08-21T07:17:27;21.40;92.30
73438;DHT22;66471;56.532;21.020;2023-08-21T07:19:54;21.30;92.30
73438;DHT22;66471;56.532;21.020;2023-08-21T07:22:21;21.20;92.50
73438;DHT22;66471;56.532;21.020;2023-08-21T07:24:48;21.30;92.80
73438;DHT22;66471;56.532;21.020;2023-08-21T07:27:15;21.30;92.80
73438;DHT22;66471;56.532;21.020;2023-08-21T07:29:42;21.50;92.40
73438;DHT22;66471;56.532;21.020;2023-08-21T07:32:10;21.50;92.30
73438;DHT22;66471;56.532;21.020;2023-08-21T07:34:37;21.50;91.40
73438;DHT22;66471;56.532;21.020;2023-08-21T07:37:04;21.60;91.50
73438;DHT22;66471;56.532;21.020;2023-08-21T07:39:31;21.70;91.20
73438;DHT22;66471;56.532;21.020;2023-08-21T07:41:58;21.90;91.20
73438;DHT22;66471;56.532;21.020;2023-08-21T07:44:26;21.90;90.50
73438;DHT22;66471;56.532;21.020;2023-08-21T07:46:54;21.80;90.70
73438;DHT22;66471;56.532;21.020;2023-08-21T07:49:21;21.50;90.80
73438;DHT22;66471;56.532;21.020;2023-08-21T07:51:48;21.30;91.80
73438;DHT22;66471;56.532;21.020;2023-08-21T07:54:15;21.30;92.20
73438;DHT22;66471;56.532;21.020;2023-08-21T07:56:42;21.30;92.60
73438;DHT22;66471;56.532;21.020;2023-08-21T07:59:09;21.30;92.20
73438;DHT22;66471;56.532;21.020;2023-08-21T08:01:36;21.30;92.30
73438;DHT22;66471;56.532;21.020;2023-08-21T08:04:03;21.00;93.00
73438;DHT22;66471;56.532;21.020;2023-08-21T08:06:31;21.00;92.80
73438;DHT22;66471;56.532;21.020;2023-08-21T08:08:58;20.90;93.10
73438;DHT22;66471;56.532;21.020;2023-08-21T08:11:25;20.90;93.20
73438;DHT22;66471;56.532;21.020;2023-08-21T08:13:52;20.80;94.30
73438;DHT22;66471;56.532;21.020;2023-08-21T08:16:19;20.80;94.70
73438;DHT22;66471;56.532;21.020;2023-08-21T08:18:47;21.00;93.20
73438;DHT22;66471;56.532;21.020;2023-08-21T08:21:15;21.30;92.20
73438;DHT22;66471;56.532;21.020;2023-08-21T08:23:43;21.70;91.60
73438;DHT22;66471;56.532;21.020;2023-08-21T08:26:10;21.90;90.40
73438;DHT22;66471;56.532;21.020;2023-08-21T08:28:37;22.00;90.00
73438;DHT22;66471;56.532;21.020;2023-08-21T08:31:05;22.50;88.50
73438;DHT22;66471;56.532;21.020;2023-08-21T08:33:32;22.60;87.50
73438;DHT22;66471;56.532;21.020;2023-08-21T08:35:59;22.50;87.70
73438;DHT22;66471;56.532;21.020;2023-08-21T08:38:26;22.50;87.90
73438;DHT22;66471;56.532;21.020;2023-08-21T08:40:54;22.50;87.80
73438;DHT22;66471;56.532;21.020;2023-08-21T08:43:25;22.30;88.90
73438;DHT22;66471;56.532;21.020;2023-08-21T08:45:56;22.10;88.40
73438;DHT22;66471;56.532;21.020;2023-08-21T08:48:24;21.90;89.00
73438;DHT22;66471;56.532;21.020;2023-08-21T08:50:52;21.70;89.40
73438;DHT22;66471;56.532;21.020;2023-08-21T08:53:19;21.80;90.80
73438;DHT22;66471;56.532;21.020;2023-08-21T08:55:46;21.80;89.40
73438;DHT22;66471;56.532;21.020;2023-08-21T08:58:15;21.80;89.80
73438;DHT22;66471;56.532;21.020;2023-08-21T09:00:42;21.70;89.30
73438;DHT22;66471;56.532;21.020;2023-08-21T09:03:09;21.90;89.80
73438;DHT22;66471;56.532;21.020;2023-08-21T09:05:39;21.90;89.70
73438;DHT22;66471;56.532;21.020;2023-08-21T09:08:11;22.20;88.80
73438;DHT22;66471;56.532;21.020;2023-08-21T09:10:39;22.40;87.50
73438;DHT22;66471;56.532;21.020;2023-08-21T09:13:18;22.80;86.10
73438;DHT22;66471;56.532;21.020;2023-08-21T09:15:48;22.90;84.70
73438;DHT22;66471;56.532;21.020;2023-08-21T09:18:16;23.00;84.30
73438;DHT22;66471;56.532;21.020;2023-08-21T09:20:43;23.20;84.70
73438;DHT22;66471;56.532;21.020;2023-08-21T09:23:17;23.40;84.10
73438;DHT22;66471;56.532;21.020;2023-08-21T09:25:46;23.60;82.80
73438;DHT22;66471;56.532;21.020;2023-08-21T10:40:22;21.00;95.70
73438;DHT22;66471;56.532;21.020;2023-08-21T10:42:52;21.00;93.20
73438;DHT22;66471;56.532;21.020;2023-08-21T10:45:19;20.90;93.80
73438;DHT22;66471;56.532;21.020;2023-08-21T10:47:46;20.90;95.50
73438;DHT22;66471;56.532;21.020;2023-08-21T10:50:16;20.80;96.60
73438;DHT22;66471;56.532;21.020;2023-08-21T10:52:44;20.70;97.20
73438;DHT22;66471;56.532;21.020;2023-08-21T10:55:15;20.90;95.30
73438;DHT22;66471;56.532;21.020;2023-08-21T10:57:42;21.40;93.60
73438;DHT22;66471;56.532;21.020;2023-08-21T11:00:14;22.10;91.80
73438;DHT22;66471;56.532;21.020;2023-08-21T11:02:46;22.80;88.20
73438;DHT22;66471;56.532;21.020;2023-08-21T11:05:15;23.20;86.90
73438;DHT22;66471;56.532;21.020;2023-08-21T11:07:51;23.30;85.90
73438;DHT22;66471;56.532;21.020;2023-08-21T11:10:23;23.40;85.10
73438;DHT22;66471;56.532;21.020;2023-08-21T11:15:20;22.90;86.40
73438;DHT22;66471;56.532;21.020;2023-08-21T11:18:00;22.70;88.60
73438;DHT22;66471;56.532;21.020;2023-08-21T11:20:32;22.60;87.30
73438;DHT22;66471;56.532;21.020;2023-08-21T11:23:04;22.30;89.30
73438;DHT22;66471;56.532;21.020;2023-08-21T11:25:38;22.30;89.30
73438;DHT22;66471;56.532;21.020;2023-08-21T11:28:06;22.60;88.60
73438;DHT22;66471;56.532;21.020;2023-08-21T11:30:35;22.70;88.50
73438;DHT22;66471;56.532;21.020;2023-08-21T11:33:09;22.60;87.80
73438;DHT22;66471;56.532;21.020;2023-08-21T11:35:38;22.40;87.90
73438;DHT22;66471;56.532;21.020;2023-08-21T11:38:06;22.20;88.60
73438;DHT22;66471;56.532;21.020;2023-08-21T11:40:36;22.10;89.00
73438;DHT22;66471;56.532;21.020;2023-08-21T11:43:03;21.90;90.20
73438;DHT22;66471;56.532;21.020;2023-08-21T11:45:32;21.90;90.10
73438;DHT22;66471;56.532;21.020;2023-08-21T11:48:19;21.90;89.90
73438;DHT22;66471;56.532;21.020;2023-08-21T11:50:48;21.90;90.10
73438;DHT22;66471;56.532;21.020;2023-08-21T11:53:15;21.90;89.70
73438;DHT22;66471;56.532;21.020;2023-08-21T11:55:42;22.00;88.70
73438;DHT22;66471;56.532;21.020;2023-08-21T11:58:09;21.90;89.60
73438;DHT22;66471;56.532;21.020;2023-08-21T12:00:39;21.70;91.10
73438;DHT22;66471;56.532;21.020;2023-08-21T12:03:07;21.50;90.80
73438;DHT22;66471;56.532;21.020;2023-08-21T12:05:42;21.60;91.00
73438;DHT22;66471;56.532;21.020;2023-08-21T12:08:11;21.80;90.70
73438;DHT22;66471;56.532;21.020;2023-08-21T12:10:38;22.00;91.10
73438;DHT22;66471;56.532;21.020;2023-08-21T12:13:07;22.00;89.50
73438;DHT22;66471;56.532;21.020;2023-08-21T12:15:34;21.90;90.20
73438;DHT22;66471;56.532;21.020;2023-08-21T12:18:01;21.90;89.90
73438;DHT22;66471;56.532;21.020;2023-08-21T12:20:28;21.80;90.20
73438;DHT22;66471;56.532;21.020;2023-08-21T12:22:56;21.80;90.20
73438;DHT22;66471;56.532;21.020;2023-08-21T12:25:23;21.50;89.60
73438;DHT22;66471;56.532;21.020;2023-08-21T12:27:50;21.30;90.90
73438;DHT22;66471;56.532;21.020;2023-08-21T12:30:35;21.40;91.20
73438;DHT22;66471;56.532;21.020;2023-08-21T12:33:02;21.40;90.70
73438;DHT22;66471;56.532;21.020;2023-08-21T12:35:47;21.20;91.60
73438;DHT22;66471;56.532;21.020;2023-08-21T12:38:14;21.20;91.60
73438;DHT22;66471;56.532;21.020;2023-08-21T12:40:41;21.20;91.90
73438;DHT22;66471;56.532;21.020;2023-08-21T12:43:08;20.90;91.80
73438;DHT22;66471;56.532;21.020;2023-08-21T12:45:36;20.90;92.10
73438;DHT22;66471;56.532;21.020;2023-08-21T12:48:04;21.00;92.10
73438;DHT22;66471;56.532;21.020;2023-08-21T12:50:32;20.80;94.30
73438;DHT22;66471;56.532;21.020;2023-08-21T12:52:59;20.80;94.60
73438;DHT22;66471;56.532;21.020;2023-08-21T12:55:27;20.80;94.10
73438;DHT22;66471;56.532;21.020;2023-08-21T12:57:56;20.80;94.20
73438;DHT22;66471;56.532;21.020;2023-08-21T13:00:23;20.80;94.00
73438;DHT22;66471;56.532;21.020;2023-08-21T13:02:50;20.80;93.90
73438;DHT22;66471;56.532;21.020;2023-08-21T13:05:17;20.70;94.50
73438;DHT22;66471;56.532;21.020;2023-08-21T13:07:44;20.60;94.40
73438;DHT22;66471;56.532;21.020;2023-08-21T13:10:11;20.60;94.20
73438;DHT22;66471;56.532;21.020;2023-08-21T13:12:38;20.60;94.60
73438;DHT22;66471;56.532;21.020;2023-08-21T13:15:06;20.50;94.60
73438;DHT22;66471;56.532;21.020;2023-08-21T13:17:36;20.50;95.10
73438;DHT22;66471;56.532;21.020;2023-08-21T13:20:04;20.50;95.60
73438;DHT22;66471;56.532;21.020;2023-08-21T13:22:47;20.50;95.40
73438;DHT22;66471;56.532;21.020;2023-08-21T13:25:16;20.60;94.50
73438;DHT22;66471;56.532;21.020;2023-08-21T13:27:43;20.60;93.80
73438;DHT22;66471;56.532;21.020;2023-08-21T13:30:11;20.70;93.60
73438;DHT22;66471;56.532;21.020;2023-08-21T13:32:38;20.80;92.60
73438;DHT22;66471;56.532;21.020;2023-08-21T13:35:06;21.00;90.70
73438;DHT22;66471;56.532;21.020;2023-08-21T13:37:36;21.30;89.80
73438;DHT22;66471;56.532;21.020;2023-08-21T13:40:05;21.30;89.50
73438;DHT22;66471;56.532;21.020;2023-08-21T13:42:40;21.60;89.10
73438;DHT22;66471;56.532;21.020;2023-08-21T13:45:12;21.70;88.80
73438;DHT22;66471;56.532;21.020;2023-08-21T13:47:43;21.70;88.60
73438;DHT22;66471;56.532;21.020;2023-08-21T13:50:11;21.60;88.80
73438;DHT22;66471;56.532;21.020;2023-08-21T13:52:38;21.40;88.70
73438;DHT22;66471;56.532;21.020;2023-08-21T13:55:07;21.40;88.80
73438;DHT22;66471;56.532;21.020;2023-08-21T13:57:35;21.30;88.90
73438;DHT22;66471;56.532;21.020;2023-08-21T14:00:04;21.40;88.70
73438;DHT22;66471;56.532;21.020;2023-08-21T14:02:34;21.40;88.40
73438;DHT22;66471;56.532;21.020;2023-08-21T14:05:03;21.30;87.70
73438;DHT22;66471;56.532;21.020;2023-08-21T14:07:34;21.10;87.90
73438;DHT22;66471;56.532;21.020;2023-08-21T14:10:03;21.10;88.00
73438;DHT22;66471;56.532;21.020;2023-08-21T14:12:32;21.10;88.00
73438;DHT22;66471;56.532;21.020;2023-08-21T14:14:59;21.00;87.00
73438;DHT22;66471;56.532;21.020;2023-08-21T14:17:27;20.90;87.00
73438;DHT22;66471;56.532;21.020;2023-08-21T14:19:58;20.80;88.70
73438;DHT22;66471;56.532;21.020;2023-08-21T14:22:29;20.80;89.30
73438;DHT22;66471;56.532;21.020;2023-08-21T14:24:57;20.60;90.50
73438;DHT22;66471;56.532;21.020;2023-08-21T14:27:25;20.60;90.70
73438;DHT22;66471;56.532;21.020;2023-08-21T14:29:52;20.60;90.30
73438;DHT22;66471;56.532;21.020;2023-08-21T14:32:19;20.50;91.50
73438;DHT22;66471;56.532;21.020;2023-08-21T14:34:47;20.60;91.60
73438;DHT22;66471;56.532;21.020;2023-08-21T14:37:14;20.40;91.10
73438;DHT22;66471;56.532;21.020;2023-08-21T14:39:42;20.40;91.70
73438;DHT22;66471;56.532;21.020;2023-08-21T14:42:10;20.50;91.30
73438;DHT22;66471;56.532;21.020;2023-08-21T14:44:38;20.50;91.30
73438;DHT22;66471;56.532;21.020;2023-08-21T14:47:05;20.40;91.50
73438;DHT22;66471;56.532;21.020;2023-08-21T14:49:40;20.50;91.20
73438;DHT22;66471;56.532;21.020;2023-08-21T14:52:08;20.50;91.20
73438;DHT22;66471;56.532;21.020;2023-08-21T14:54:36;20.50;91.10
73438;DHT22;66471;56.532;21.020;2023-08-21T14:57:03;20.30;90.90
73438;DHT22;66471;56.532;21.020;2023-08-21T14:59:31;20.20;91.30
73438;DHT22;66471;56.532;21.020;2023-08-21T15:01:58;20.30;90.80
73438;DHT22;66471;56.532;21.020;2023-08-21T15:04:25;20.20;90.70
73438;DHT22;66471;56.532;21.020;2023-08-21T15:06:52;20.30;90.30
73438;DHT22;66471;56.532;21.020;2023-08-21T15:09:19;20.20;90.60
73438;DHT22;66471;56.532;21.020;2023-08-21T15:11:47;20.40;90.10
73438;DHT22;66471;56.532;21.020;2023-08-21T15:14:16;20.40;89.50
73438;DHT22;66471;56.532;21.020;2023-08-21T15:16:43;20.40;88.90
73438;DHT22;66471;56.532;21.020;2023-08-21T15:19:10;20.50;88.70
73438;DHT22;66471;56.532;21.020;2023-08-21T15:21:37;20.50;88.40
73438;DHT22;66471;56.532;21.020;2023-08-21T15:24:08;20.50;88.20
73438;DHT22;66471;56.532;21.020;2023-08-21T15:26:35;20.40;88.10
73438;DHT22;66471;56.532;21.020;2023-08-21T15:29:02;20.50;88.40
73438;DHT22;66471;56.532;21.020;2023-08-21T15:31:29;20.30;89.20
73438;DHT22;66471;56.532;21.020;2023-08-21T15:33:57;20.40;89.90
73438;DHT22;66471;56.532;21.020;2023-08-21T15:36:24;20.50;89.00
73438;DHT22;66471;56.532;21.020;2023-08-21T15:38:51;20.40;89.90
73438;DHT22;66471;56.532;21.020;2023-08-21T15:41:18;20.30;89.80
73438;DHT22;66471;56.532;21.020;2023-08-21T15:43:45;20.20;90.80
73438;DHT22;66471;56.532;21.020;2023-08-21T15:46:12;20.30;91.00
73438;DHT22;66471;56.532;21.020;2023-08-21T15:48:39;20.20;90.60
73438;DHT22;66471;56.532;21.020;2023-08-21T15:51:06;20.10;90.30
73438;DHT22;66471;56.532;21.020;2023-08-21T15:53:34;20.10;91.00
73438;DHT22;66471;56.532;21.020;2023-08-21T15:56:01;20.00;91.50
73438;DHT22;66471;56.532;21.020;2023-08-21T15:58:28;20.00;90.50
73438;DHT22;66471;56.532;21.020;2023-08-21T16:00:57;19.90;89.60
73438;DHT22;66471;56.532;21.020;2023-08-21T16:03:24;19.90;90.60
73438;DHT22;66471;56.532;21.020;2023-08-21T16:05:51;20.00;90.30
73438;DHT22;66471;56.532;21.020;2023-08-21T16:08:19;20.00;90.10
73438;DHT22;66471;56.532;21.020;2023-08-21T16:10:46;19.90;89.60
73438;DHT22;66471;56.532;21.020;2023-08-21T16:13:13;19.90;90.40
73438;DHT22;66471;56.532;21.020;2023-08-21T16:15:40;20.00;89.40
73438;DHT22;66471;56.532;21.020;2023-08-21T16:18:07;20.00;90.30
73438;DHT22;66471;56.532;21.020;2023-08-21T16:20:36;20.10;90.30
73438;DHT22;66471;56.532;21.020;2023-08-21T16:23:03;20.20;89.10
73438;DHT22;66471;56.532;21.020;2023-08-21T16:25:39;20.20;88.70
73438;DHT22;66471;56.532;21.020;2023-08-21T16:28:06;20.40;88.40
73438;DHT22;66471;56.532;21.020;2023-08-21T16:30:33;20.40;88.10
73438;DHT22;66471;56.532;21.020;2023-08-21T16:33:01;20.50;87.10
73438;DHT22;66471;56.532;21.020;2023-08-21T16:35:28;20.40;87.40
73438;DHT22;66471;56.532;21.020;2023-08-21T16:37:55;20.40;88.10
73438;DHT22;66471;56.532;21.020;2023-08-21T16:40:22;20.40;89.10
73438;DHT22;66471;56.532;21.020;2023-08-21T16:42:51;20.30;89.90
73438;DHT22;66471;56.532;21.020;2023-08-21T16:45:18;20.30;90.30
73438;DHT22;66471;56.532;21.020;2023-08-21T16:47:45;20.20;90.30
73438;DHT22;66471;56.532;21.020;2023-08-21T16:50:13;20.20;90.80
73438;DHT22;66471;56.532;21.020;2023-08-21T16:52:41;20.30;90.70
73438;DHT22;66471;56.532;21.020;2023-08-21T16:55:08;20.20;91.30
73438;DHT22;66471;56.532;21.020;2023-08-21T16:57:36;20.30;90.50
73438;DHT22;66471;56.532;21.020;2023-08-21T17:00:03;20.20;90.70
